createdAt,value
2022-11-10T00:00:40.998Z,2.87
2022-11-10T00:03:10.382Z,2.87
2022-11-10T00:05:38.949Z,2.77
2022-11-10T00:08:08.354Z,3.03
2022-11-10T00:10:56.946Z,2.67
2022-11-10T00:13:26.061Z,2.73
2022-11-10T00:16:11.330Z,2.57
2022-11-10T00:18:38.945Z,2.50
2022-11-10T00:21:07.863Z,2.27
2022-11-10T00:23:35.502Z,2.60
2022-11-10T00:26:05.084Z,2.73
2022-11-10T00:28:33.534Z,2.40
2022-11-10T00:31:07.037Z,2.33
2022-11-10T00:33:36.178Z,2.40
2022-11-10T00:36:04.534Z,2.10
2022-11-10T00:38:32.149Z,2.20
2022-11-10T00:41:00.680Z,2.40
2022-11-10T00:43:30.403Z,2.10
2022-11-10T00:45:58.577Z,2.20
2022-11-10T00:48:26.367Z,2.00
2022-11-10T00:50:54.008Z,2.10
2022-11-10T00:53:21.923Z,1.77
2022-11-10T00:55:49.773Z,2.30
2022-11-10T00:58:17.779Z,1.70
2022-11-10T01:00:46.897Z,2.20
2022-11-10T01:03:16.110Z,2.50
2022-11-10T01:05:43.992Z,1.93
2022-11-10T01:08:12.310Z,1.80
2022-11-10T01:10:40.027Z,1.50
2022-11-10T01:13:07.703Z,1.93
2022-11-10T01:15:35.327Z,1.67
2022-11-10T01:18:04.453Z,1.67
2022-11-10T01:20:33.799Z,1.53
2022-11-10T01:23:01.593Z,2.13
2022-11-10T01:25:29.248Z,1.50
2022-11-10T01:27:56.891Z,1.83
2022-11-10T01:30:24.483Z,1.17
2022-11-10T01:32:52.153Z,1.27
2022-11-10T01:35:21.874Z,1.20
2022-11-10T01:37:49.493Z,1.17
2022-11-10T01:40:17.181Z,1.70
2022-11-10T01:42:51.278Z,1.40
2022-11-10T01:45:45.032Z,1.20
2022-11-10T01:48:17.106Z,1.03
2022-11-10T01:50:48.781Z,0.73
2022-11-10T01:53:21.723Z,0.93
2022-11-10T01:55:50.552Z,1.07
2022-11-10T01:58:22.191Z,0.80
2022-11-10T02:00:50.431Z,1.10
2022-11-10T02:03:25.034Z,0.77
2022-11-10T02:05:54.284Z,1.70
2022-11-10T02:08:23.320Z,1.10
2022-11-10T02:10:50.912Z,0.60
2022-11-10T02:13:18.709Z,0.67
2022-11-10T02:15:46.857Z,1.17
2022-11-10T02:18:14.506Z,0.80
2022-11-10T02:20:46.612Z,0.57
2022-11-10T02:23:16.716Z,0.60
2022-11-10T02:25:44.585Z,0.60
2022-11-10T02:28:12.164Z,0.60
2022-11-10T02:30:39.732Z,1.80
2022-11-10T02:33:07.344Z,0.70
2022-11-10T02:35:34.947Z,0.80
2022-11-10T02:38:03.890Z,2.83
2022-11-10T02:40:31.537Z,0.57
2022-11-10T02:42:59.132Z,0.70
2022-11-10T02:45:26.723Z,0.70
2022-11-10T02:47:54.366Z,0.93
2022-11-10T02:50:21.934Z,0.63
2022-11-10T02:52:49.550Z,0.50
2022-11-10T02:55:18.608Z,0.50
2022-11-10T02:57:46.177Z,0.67
2022-11-10T03:00:14.276Z,0.50
2022-11-10T03:02:41.898Z,2.67
2022-11-10T03:05:09.838Z,0.80
2022-11-10T03:07:37.611Z,1.53
2022-11-10T03:10:06.350Z,1.40
2022-11-10T03:12:35.292Z,0.93
2022-11-10T03:15:02.951Z,0.90
2022-11-10T03:17:30.598Z,2.50
2022-11-10T03:19:58.188Z,1.03
2022-11-10T03:22:25.819Z,1.00
2022-11-10T03:24:53.410Z,0.93
2022-11-10T03:27:21.049Z,1.83
2022-11-10T03:29:49.999Z,5.43
2022-11-10T03:32:17.561Z,3.03
2022-11-10T03:34:45.176Z,0.70
2022-11-10T03:37:12.761Z,2.30
2022-11-10T03:39:40.745Z,2.37
2022-11-10T03:42:08.327Z,1.10
2022-11-10T03:44:35.944Z,1.70
2022-11-10T03:47:04.980Z,0.87
2022-11-10T03:49:32.650Z,1.50
2022-11-10T03:52:00.217Z,1.33
2022-11-10T03:54:27.803Z,1.93
2022-11-10T03:56:55.793Z,2.33
2022-11-10T03:59:23.356Z,1.70
2022-11-10T04:01:51.197Z,2.03
2022-11-10T04:04:34.133Z,0.70
2022-11-10T04:07:27.547Z,1.50
2022-11-10T04:09:55.119Z,1.07
2022-11-10T04:12:40.503Z,0.70
2022-11-10T04:15:28.149Z,2.83
2022-11-10T04:18:15.779Z,1.57
2022-11-10T04:20:45.629Z,1.53
2022-11-10T04:23:28.627Z,0.83
2022-11-10T04:26:15.860Z,1.93
2022-11-10T04:28:44.069Z,2.20
2022-11-10T04:31:11.929Z,2.73
2022-11-10T04:33:41.170Z,1.23
2022-11-10T04:36:12.930Z,2.63
2022-11-10T04:38:41.076Z,1.87
2022-11-10T04:41:08.961Z,1.13
2022-11-10T04:43:36.654Z,1.67
2022-11-10T04:46:05.444Z,1.53
2022-11-10T04:48:34.574Z,1.80
2022-11-10T04:51:04.839Z,2.47
2022-11-10T04:53:34.839Z,1.57
2022-11-10T04:56:02.488Z,1.87
2022-11-10T04:58:30.277Z,1.30
2022-11-10T05:00:58.075Z,4.20
2022-11-10T05:03:26.521Z,1.57
2022-11-10T05:05:54.216Z,1.73
2022-11-10T05:08:21.870Z,1.30
2022-11-10T05:10:50.801Z,1.40
2022-11-10T05:13:18.408Z,2.67
2022-11-10T05:15:46.942Z,1.20
2022-11-10T05:18:14.680Z,1.63
2022-11-10T05:20:42.293Z,2.53
2022-11-10T05:23:27.647Z,1.77
2022-11-10T05:25:56.662Z,2.23
2022-11-10T05:28:24.506Z,1.47
2022-11-10T05:30:52.154Z,4.90
2022-11-10T05:33:20.118Z,2.20
2022-11-10T05:35:49.921Z,1.33
2022-11-10T05:38:17.586Z,3.27
2022-11-10T05:40:45.276Z,3.30
2022-11-10T05:43:14.417Z,3.00
2022-11-10T05:45:42.198Z,3.37
2022-11-10T05:48:09.955Z,1.43
2022-11-10T05:50:37.674Z,1.33
2022-11-10T05:53:05.286Z,2.87
2022-11-10T05:55:33.003Z,1.70
2022-11-10T05:58:00.560Z,1.63
2022-11-10T06:00:31.119Z,2.70
2022-11-10T06:03:03.447Z,2.13
2022-11-10T06:05:32.986Z,3.17
2022-11-10T06:08:01.414Z,2.00
2022-11-10T06:10:29.351Z,3.03
2022-11-10T06:12:57.008Z,2.33
2022-11-10T06:15:25.355Z,1.60
2022-11-10T06:17:54.869Z,2.40
2022-11-10T06:20:23.393Z,2.97
2022-11-10T06:23:00.951Z,1.77
2022-11-10T06:25:30.250Z,1.50
2022-11-10T06:27:58.623Z,4.60
2022-11-10T06:30:27.515Z,2.83
2022-11-10T06:32:56.499Z,2.17
2022-11-10T06:35:25.524Z,1.50
2022-11-10T06:38:00.780Z,2.33
2022-11-10T06:40:28.747Z,2.37
2022-11-10T06:42:56.520Z,3.67
2022-11-10T06:45:24.896Z,2.33
2022-11-10T06:48:02.465Z,3.10
2022-11-10T06:50:30.315Z,4.00
2022-11-10T06:52:59.435Z,3.10
2022-11-10T06:55:27.497Z,2.80
2022-11-10T06:57:55.335Z,2.10
2022-11-10T07:00:23.303Z,3.80
2022-11-10T07:03:01.296Z,3.10
2022-11-10T07:05:29.430Z,2.23
2022-11-10T07:07:57.071Z,4.87
2022-11-10T07:10:24.706Z,2.80
2022-11-10T07:12:57.538Z,3.63
2022-11-10T07:15:25.338Z,3.40
2022-11-10T07:17:53.023Z,2.60
2022-11-10T07:20:22.098Z,3.30
2022-11-10T07:22:49.760Z,2.47
2022-11-10T07:25:17.524Z,4.83
2022-11-10T07:27:45.157Z,3.93
2022-11-10T07:30:13.582Z,3.00
2022-11-10T07:32:41.164Z,3.07
2022-11-10T07:35:09.551Z,3.90
2022-11-10T07:37:38.456Z,5.17
2022-11-10T07:40:07.080Z,2.90
2022-11-10T07:42:40.446Z,2.53
2022-11-10T07:45:09.261Z,3.80
2022-11-10T07:47:36.848Z,4.17
2022-11-10T07:50:04.641Z,3.47
2022-11-10T07:52:32.287Z,4.47
2022-11-10T07:55:01.245Z,4.23
2022-11-10T07:57:28.899Z,3.43
2022-11-10T07:59:58.180Z,4.70
2022-11-10T08:02:26.167Z,2.43
2022-11-10T08:04:53.841Z,3.57
2022-11-10T08:07:21.509Z,3.10
2022-11-10T08:09:50.562Z,2.63
2022-11-10T08:12:19.582Z,3.80
2022-11-10T08:14:47.238Z,3.20
2022-11-10T08:17:14.805Z,3.43
2022-11-10T08:19:42.415Z,2.97
2022-11-10T08:22:09.981Z,2.70
2022-11-10T08:24:37.552Z,3.70
2022-11-10T08:27:05.420Z,3.53
2022-11-10T08:29:34.426Z,3.97
2022-11-10T08:32:08.457Z,3.13
2022-11-10T08:34:54.668Z,2.60
2022-11-10T08:37:24.360Z,2.90
2022-11-10T08:39:51.926Z,4.00
2022-11-10T08:42:19.596Z,2.93
2022-11-10T08:44:49.110Z,3.70
2022-11-10T08:47:16.868Z,3.67
2022-11-10T08:49:45.159Z,2.90
2022-11-10T08:52:14.229Z,3.00
2022-11-10T08:54:42.338Z,4.43
2022-11-10T08:57:10.512Z,2.33
2022-11-10T08:59:38.699Z,2.60
2022-11-10T09:02:09.708Z,6.07
2022-11-10T09:04:37.790Z,3.60
2022-11-10T09:07:05.463Z,3.53
2022-11-10T09:09:33.072Z,3.50
2022-11-10T09:12:00.752Z,6.20
2022-11-10T09:14:28.390Z,2.17
2022-11-10T09:16:55.980Z,3.03
2022-11-10T09:19:24.973Z,3.53
2022-11-10T09:21:52.569Z,3.47
2022-11-10T09:24:20.226Z,3.13
2022-11-10T09:26:48.029Z,4.20
2022-11-10T09:29:15.798Z,2.80
2022-11-10T09:31:44.607Z,3.60
2022-11-10T09:34:12.319Z,2.50
2022-11-10T09:36:41.319Z,2.40
2022-11-10T09:39:09.096Z,4.07
2022-11-10T09:41:44.235Z,2.90
2022-11-10T09:44:17.295Z,2.70
2022-11-10T09:46:47.439Z,4.60
2022-11-10T09:49:26.509Z,4.63
2022-11-10T09:51:56.010Z,4.67
2022-11-10T09:54:33.648Z,1.80
2022-11-10T09:57:02.585Z,3.47
2022-11-10T09:59:32.275Z,2.53
2022-11-10T10:02:04.313Z,3.07
2022-11-10T10:04:51.708Z,1.73
2022-11-10T10:07:26.155Z,4.10
2022-11-10T10:10:01.825Z,2.30
2022-11-10T10:12:49.440Z,2.00
2022-11-10T10:15:28.132Z,3.80
2022-11-10T10:18:06.340Z,3.57
2022-11-10T10:20:41.313Z,2.13
2022-11-10T10:23:24.146Z,2.60
2022-11-10T10:25:58.334Z,3.53
2022-11-10T10:28:30.126Z,2.40
2022-11-10T10:31:09.000Z,2.70
2022-11-10T10:33:36.665Z,4.90
2022-11-10T10:36:10.607Z,2.17
2022-11-10T10:38:40.996Z,1.30
2022-11-10T10:41:19.512Z,2.27
2022-11-10T10:43:52.801Z,1.40
2022-11-10T10:46:24.852Z,2.93
2022-11-10T10:49:27.448Z,2.30
2022-11-10T10:52:05.280Z,3.53
2022-11-10T10:54:35.682Z,1.60
2022-11-10T10:57:05.986Z,2.53
2022-11-10T10:59:34.580Z,6.37
2022-11-10T11:02:02.254Z,3.00
2022-11-10T11:04:33.016Z,1.80
2022-11-10T11:07:03.748Z,2.10
2022-11-10T11:09:41.585Z,5.87
2022-11-10T11:12:12.809Z,5.13
2022-11-10T11:14:45.656Z,2.37
2022-11-10T11:17:15.374Z,3.47
2022-11-10T11:19:43.075Z,3.00
2022-11-10T11:22:37.741Z,3.27
2022-11-10T11:25:17.274Z,3.03
2022-11-10T11:27:54.566Z,1.53
2022-11-10T11:30:23.921Z,1.73
2022-11-10T11:33:16.455Z,3.23
2022-11-10T11:35:50.711Z,1.23
2022-11-10T11:38:28.274Z,2.30
2022-11-10T11:41:12.577Z,2.53
2022-11-10T11:43:57.276Z,3.70
2022-11-10T11:46:35.856Z,3.77
2022-11-10T11:49:27.219Z,1.13
2022-11-10T11:52:07.866Z,1.07
2022-11-10T11:54:46.864Z,1.70
2022-11-10T11:57:31.676Z,3.40
2022-11-10T12:00:10.327Z,2.60
2022-11-10T12:03:04.957Z,2.77
2022-11-10T12:05:38.392Z,1.53
2022-11-10T12:08:19.264Z,2.63
2022-11-10T12:10:58.681Z,1.97
2022-11-10T12:13:37.603Z,2.57
2022-11-10T12:16:15.415Z,2.27
2022-11-10T12:18:49.941Z,2.53
2022-11-10T12:21:25.515Z,0.83
2022-11-10T12:24:13.096Z,2.97
2022-11-10T12:26:50.052Z,1.67
2022-11-10T12:29:27.363Z,3.17
2022-11-10T12:32:02.653Z,2.60
2022-11-10T12:34:37.047Z,1.43
2022-11-10T12:37:09.104Z,1.87
2022-11-10T12:39:47.241Z,2.23
2022-11-10T12:42:19.681Z,2.47
2022-11-10T12:44:59.421Z,1.33
2022-11-10T12:47:32.458Z,2.30
2022-11-10T12:50:11.517Z,0.77
2022-11-10T12:52:45.423Z,2.07
2022-11-10T12:55:14.146Z,2.20
2022-11-10T12:57:43.674Z,1.63
2022-11-10T13:00:28.666Z,1.23
2022-11-10T13:02:58.915Z,2.93
2022-11-10T13:05:32.781Z,2.47
2022-11-10T13:08:17.129Z,2.53
2022-11-10T13:10:56.961Z,2.47
2022-11-10T13:13:25.856Z,1.07
2022-11-10T13:15:59.509Z,2.13
2022-11-10T13:18:57.388Z,1.27
2022-11-10T13:22:05.338Z,1.73
2022-11-10T13:24:34.308Z,1.57
2022-11-10T13:27:02.931Z,2.47
2022-11-10T13:29:36.443Z,1.53
2022-11-10T13:32:30.565Z,1.97
2022-11-10T13:35:31.615Z,1.63
2022-11-10T13:37:59.256Z,1.77
2022-11-10T13:40:33.980Z,1.43
2022-11-10T13:43:23.835Z,1.20
2022-11-10T13:46:03.151Z,1.80
2022-11-10T13:48:44.271Z,2.33
2022-11-10T13:51:22.804Z,1.57
2022-11-10T13:54:03.714Z,1.77
2022-11-10T13:56:51.394Z,2.40
2022-11-10T13:59:22.003Z,1.40
2022-11-10T14:01:49.840Z,2.30
2022-11-10T14:04:42.865Z,2.50
2022-11-10T14:07:16.337Z,1.60
2022-11-10T14:09:47.751Z,1.80
2022-11-10T14:12:23.133Z,1.10
2022-11-10T14:14:56.212Z,2.13
2022-11-10T14:17:28.591Z,1.93
2022-11-10T14:19:58.395Z,1.63
2022-11-10T14:22:30.947Z,1.03
2022-11-10T14:25:03.545Z,2.07
2022-11-10T14:27:35.257Z,1.23
2022-11-10T14:30:10.916Z,1.87
2022-11-10T14:32:38.689Z,1.03
2022-11-10T14:35:20.422Z,0.90
2022-11-10T14:37:48.124Z,1.00
2022-11-10T14:40:19.801Z,1.00
2022-11-10T14:42:48.177Z,2.57
2022-11-10T14:45:18.610Z,2.47
2022-11-10T14:47:53.374Z,4.07
2022-11-10T14:50:25.812Z,1.93
2022-11-10T14:52:58.920Z,1.63
2022-11-10T14:55:30.362Z,2.57
2022-11-10T14:58:03.705Z,2.37
2022-11-10T15:00:36.701Z,1.93
2022-11-10T15:03:06.854Z,1.97
2022-11-10T15:05:36.446Z,2.10
2022-11-10T15:08:05.506Z,2.03
2022-11-10T15:10:45.311Z,1.73
2022-11-10T15:13:25.501Z,2.23
2022-11-10T15:15:53.690Z,4.07
2022-11-10T15:18:31.406Z,2.07
2022-11-10T15:21:04.705Z,1.50
2022-11-10T15:23:36.439Z,2.23
2022-11-10T15:26:04.546Z,2.93
2022-11-10T15:28:33.740Z,1.30
2022-11-10T15:31:03.669Z,2.17
2022-11-10T15:33:34.863Z,2.60
2022-11-10T15:36:18.700Z,2.30
2022-11-10T15:39:02.526Z,2.83
2022-11-10T15:41:33.492Z,3.00
2022-11-10T15:44:14.382Z,1.67
2022-11-10T15:46:42.271Z,2.43
2022-11-10T15:49:15.637Z,2.03
2022-11-10T15:51:44.853Z,3.37
2022-11-10T15:54:12.898Z,4.37
2022-11-10T15:56:40.620Z,3.53
2022-11-10T15:59:10.442Z,4.80
2022-11-10T16:01:38.227Z,2.60
2022-11-10T16:04:06.386Z,4.13
2022-11-10T16:06:34.093Z,2.43
2022-11-10T16:09:03.218Z,3.23
2022-11-10T16:11:32.063Z,3.47
2022-11-10T16:14:01.259Z,3.53
2022-11-10T16:16:29.991Z,4.03
2022-11-10T16:18:57.639Z,5.13
2022-11-10T16:21:28.104Z,3.20
2022-11-10T16:23:55.658Z,5.57
2022-11-10T16:26:27.487Z,2.50
2022-11-10T16:28:55.146Z,4.70
2022-11-10T16:31:23.312Z,5.00
2022-11-10T16:33:51.060Z,2.97
2022-11-10T16:36:24.970Z,4.37
2022-11-10T16:38:52.979Z,3.40
2022-11-10T16:41:20.985Z,4.53
2022-11-10T16:43:50.313Z,3.77
2022-11-10T16:46:20.938Z,5.23
2022-11-10T16:48:50.069Z,5.10
2022-11-10T16:51:18.270Z,3.83
2022-11-10T16:53:54.686Z,3.50
2022-11-10T16:56:23.100Z,3.20
2022-11-10T16:58:52.393Z,5.35
2022-11-10T17:01:23.136Z,5.43
2022-11-10T17:03:53.634Z,5.00
2022-11-10T17:06:22.150Z,7.70
2022-11-10T17:08:53.398Z,4.97
2022-11-10T17:11:21.097Z,4.67
2022-11-10T17:13:48.711Z,4.47
2022-11-10T17:16:22.942Z,6.67
2022-11-10T17:18:51.720Z,4.87
2022-11-10T17:21:20.168Z,3.67
2022-11-10T17:23:47.865Z,4.43
2022-11-10T17:26:17.575Z,3.73
2022-11-10T17:28:45.197Z,5.43
2022-11-10T17:31:13.849Z,3.70
2022-11-10T17:33:43.010Z,3.07
2022-11-10T17:36:15.019Z,3.27
2022-11-10T17:38:43.862Z,6.30
2022-11-10T17:41:16.491Z,8.23
2022-11-10T17:43:45.873Z,5.43
2022-11-10T17:46:13.888Z,6.70
2022-11-10T17:48:42.878Z,20.10
2022-11-10T17:51:14.771Z,14.57
2022-11-10T17:53:43.692Z,7.87
2022-11-10T17:56:11.314Z,5.67
2022-11-10T17:58:38.962Z,4.70
2022-11-10T18:01:11.933Z,5.47
2022-11-10T18:03:39.624Z,4.57
2022-11-10T18:06:09.168Z,6.67
2022-11-10T18:08:37.603Z,5.67
2022-11-10T18:11:05.347Z,5.87
2022-11-10T18:13:32.947Z,5.53
2022-11-10T18:16:00.802Z,5.03
2022-11-10T18:18:28.392Z,6.77
2022-11-10T18:20:57.577Z,5.93
2022-11-10T18:23:26.585Z,3.20
2022-11-10T18:25:54.198Z,4.00
2022-11-10T18:28:21.940Z,4.47
2022-11-10T18:30:49.528Z,4.70
2022-11-10T18:33:17.110Z,7.87
2022-11-10T18:35:44.736Z,8.27
2022-11-10T18:38:13.941Z,5.37
2022-11-10T18:40:42.918Z,5.37
2022-11-10T18:43:10.550Z,4.33
2022-11-10T18:45:38.201Z,8.03
2022-11-10T18:48:06.369Z,6.90
2022-11-10T18:50:34.194Z,5.70
2022-11-10T18:53:04.442Z,8.13
2022-11-10T18:55:32.034Z,7.47
2022-11-10T18:58:00.976Z,9.40
2022-11-10T19:00:28.547Z,8.53
2022-11-10T19:02:56.099Z,9.87
2022-11-10T19:05:23.775Z,9.20
2022-11-10T19:07:51.381Z,12.40
2022-11-10T19:10:19.197Z,8.80
2022-11-10T19:12:46.775Z,11.33
2022-11-10T19:15:15.962Z,6.03
2022-11-10T19:17:43.560Z,6.87
2022-11-10T19:20:14.666Z,6.73
2022-11-10T19:22:42.469Z,6.77
2022-11-10T19:25:10.400Z,7.83
2022-11-10T19:27:38.079Z,6.30
2022-11-10T19:30:06.573Z,7.57
2022-11-10T19:32:35.550Z,10.03
2022-11-10T19:35:04.244Z,8.60
2022-11-10T19:37:34.932Z,5.70
2022-11-10T19:40:03.298Z,9.87
2022-11-10T19:42:31.924Z,8.30
2022-11-10T19:45:00.479Z,6.27
2022-11-10T19:47:28.099Z,6.50
2022-11-10T19:49:57.246Z,6.00
2022-11-10T19:52:24.862Z,6.37
2022-11-10T19:54:52.426Z,6.33
2022-11-10T19:57:20.043Z,7.73
2022-11-10T19:59:47.649Z,5.80
2022-11-10T20:02:15.219Z,5.30
2022-11-10T20:04:56.833Z,6.27
2022-11-10T20:07:43.144Z,6.33
2022-11-10T20:10:11.223Z,6.43
2022-11-10T20:12:44.048Z,4.67
2022-11-10T20:15:12.048Z,5.10
2022-11-10T20:17:39.597Z,4.60
2022-11-10T20:20:08.171Z,6.50
2022-11-10T20:22:37.170Z,10.80
2022-11-10T20:25:05.603Z,8.70
2022-11-10T20:27:33.351Z,6.13
2022-11-10T20:30:01.017Z,5.60
2022-11-10T20:32:29.045Z,7.07
2022-11-10T20:34:58.643Z,5.70
2022-11-10T20:37:32.312Z,5.23
2022-11-10T20:40:02.584Z,5.40
2022-11-10T20:42:31.593Z,5.77
2022-11-10T20:44:59.248Z,6.07
2022-11-10T20:47:27.037Z,6.37
2022-11-10T20:49:54.733Z,8.37
2022-11-10T20:52:27.451Z,4.77
2022-11-10T20:54:55.246Z,5.23
2022-11-10T20:57:24.201Z,6.83
2022-11-10T20:59:51.799Z,4.93
2022-11-10T21:02:19.433Z,6.47
2022-11-10T21:04:47.140Z,4.53
2022-11-10T21:07:14.838Z,4.20
2022-11-10T21:09:42.549Z,5.43
2022-11-10T21:12:30.454Z,5.90
2022-11-10T21:14:59.427Z,5.73
2022-11-10T21:17:27.151Z,4.97
2022-11-10T21:19:55.540Z,8.33
2022-11-10T21:22:23.186Z,6.57
2022-11-10T21:24:50.787Z,5.37
2022-11-10T21:27:18.392Z,6.03
2022-11-10T21:29:46.371Z,6.20
2022-11-10T21:32:15.389Z,7.70
2022-11-10T21:34:43.088Z,8.23
2022-11-10T21:37:10.688Z,8.37
2022-11-10T21:39:38.701Z,7.10
2022-11-10T21:42:06.733Z,5.43
2022-11-10T21:44:34.352Z,5.33
2022-11-10T21:47:01.927Z,5.80
2022-11-10T21:49:30.915Z,5.90
2022-11-10T21:51:58.494Z,5.57
2022-11-10T21:54:26.105Z,4.97
2022-11-10T21:56:53.715Z,5.60
2022-11-10T21:59:21.346Z,6.20
2022-11-10T22:01:49.051Z,4.80
2022-11-10T22:04:18.731Z,4.70
2022-11-10T22:07:05.531Z,4.87
2022-11-10T22:09:50.885Z,5.93
2022-11-10T22:12:41.596Z,7.70
2022-11-10T22:15:32.234Z,5.33
2022-11-10T22:18:17.654Z,5.40
2022-11-10T22:20:45.317Z,5.20
2022-11-10T22:23:14.304Z,3.27
2022-11-10T22:25:41.893Z,6.40
2022-11-10T22:28:09.466Z,3.83
2022-11-10T22:30:37.549Z,3.47
2022-11-10T22:33:25.960Z,2.87
2022-11-10T22:35:57.954Z,3.50
2022-11-10T22:38:26.903Z,3.93
2022-11-10T22:41:12.229Z,4.30
2022-11-10T22:43:57.522Z,3.10
2022-11-10T22:46:25.111Z,4.13
2022-11-10T22:48:52.755Z,4.20
2022-11-10T22:51:20.543Z,3.53
2022-11-10T22:53:49.711Z,3.53
2022-11-10T22:56:18.894Z,2.87
2022-11-10T22:58:46.774Z,3.20
2022-11-10T23:01:14.701Z,3.37
2022-11-10T23:03:44.704Z,4.40
2022-11-10T23:06:12.886Z,3.63
2022-11-10T23:08:46.213Z,3.00
2022-11-10T23:11:19.039Z,3.67
2022-11-10T23:13:47.166Z,4.00
2022-11-10T23:16:16.847Z,3.80
2022-11-10T23:18:45.866Z,3.17
2022-11-10T23:21:15.204Z,2.60
2022-11-10T23:23:43.595Z,3.13
2022-11-10T23:26:13.455Z,4.77
2022-11-10T23:28:42.762Z,2.87
2022-11-10T23:31:12.626Z,3.70
2022-11-10T23:33:41.986Z,3.47
2022-11-10T23:36:11.243Z,2.67
2022-11-10T23:38:39.546Z,3.20
2022-11-10T23:41:08.692Z,2.27
2022-11-10T23:43:36.257Z,2.67
2022-11-10T23:46:07.953Z,3.20
2022-11-10T23:48:36.643Z,2.00
2022-11-10T23:51:05.008Z,2.97
2022-11-10T23:53:33.067Z,3.00
2022-11-10T23:56:02.319Z,2.47
2022-11-10T23:58:30.177Z,3.77
